Data for 01/15/2010

Time Sea-Level Adjusted Pressure Absolute Pressure Temperature Relative Humidity Dew Point   
(mb) (inHg) (mb) (inHg) (C) (F) (%) (C) (F)
00:05 1023 30.21 852 25.16 -1.3 29.7 68 -6.4 20.4
00:10 1023 30.21 852 25.16 -1.5 29.4 70 -6.3 20.7
00:15 1023 30.21 852 25.16 -2 28.4 72 -6.4 20.5
00:20 1023 30.21 852 25.16 -2.5 27.4 74 -6.6 20.1
00:25 1023 30.21 852 25.16 -2.7 27.2 73 -6.8 19.7
00:30 1023 30.21 852 25.16 -2.4 27.6 72 -6.9 19.6
00:35 1023 30.21 852 25.16 -2.3 27.8 72 -6.8 19.8
00:40 1023 30.21 852 25.16 -2.1 28.2 69 -7 19.4
00:45 1023 30.21 852 25.16 -2.1 28.2 69 -7 19.4
00:50 1023 30.21 852 25.16 -1.7 29 66 -7.2 19.1
00:55 1023 30.21 852 25.16 -1.3 29.6 65 -7 19.3
01:00 1023 30.21 852 25.16 -1 30.2 65 -6.8 19.8
01:05 1023 30.21 852 25.16 -1.3 29.7 67 -6.6 20.1
01:10 1023 30.21 852 25.16 -1.7 28.9 68 -6.8 19.7
01:15 1023 30.21 852 25.16 -2.3 27.9 71 -6.9 19.5
01:20 1023 30.21 852 25.16 -2 28.4 69 -6.9 19.5
01:25 1023 30.21 852 25.16 -1.8 28.8 67 -7.2 19
01:30 1023 30.21 852 25.16 -1.3 29.6 64 -7.2 19.1
01:35 1023 30.21 852 25.16 -1.4 29.5 66 -6.9 19.5
01:40 1023 30.21 852 25.16 -1.8 28.8 67 -7 19.3
01:45 1023 30.21 852 25.16 -1.9 28.6 68 -7.1 19.2
01:50 1023 30.21 852 25.16 -1.9 28.5 69 -7 19.4
01:55 1023 30.21 852 25.16 -1.4 29.5 66 -7 19.4
02:00 1023 30.21 852 25.16 -1.1 29.9 65 -6.8 19.7
02:05 1023 30.21 852 25.16 -1.2 29.8 66 -6.8 19.7
02:10 1023 30.21 852 25.16 -1.4 29.5 65 -7 19.3
02:15 1023 30.21 852 25.16 -1.4 29.5 65 -7.1 19.3
02:20 1023 30.21 852 25.16 -1.4 29.5 64 -7.2 19
02:25 1023 30.21 852 25.16 -1.5 29.3 65 -7.2 19
02:30 1023 30.21 852 25.16 -1.3 29.6 64 -7.3 18.8
02:35 1023 30.21 852 25.16 -1.2 29.8 64 -7.1 19.2
02:40 1023 30.21 852 25.16 -1.2 29.9 65 -7 19.4
02:45 1023 30.21 852 25.16 -1.1 30 64 -7.1 19.3
02:50 1023 30.21 852 25.16 -1.1 30 64 -7.1 19.3
02:55 1023 30.21 852 25.16 -1.2 29.8 64 -7.1 19.2
03:00 1023 30.21 852 25.16 -1.3 29.6 65 -7.2 19.1
03:05 1023 30.21 852 25.16 -1.2 29.9 64 -7.2 19
03:10 1023 30.21 852 25.16 -0.9 30.3 64 -7 19.4
03:15 1023 30.21 852 25.16 -0.8 30.6 63 -7.1 19.3
03:20 1023 30.21 852 25.16 -0.6 30.9 61 -7.2 19
03:25 1023 30.21 852 25.16 -0.2 31.7 60 -7 19.3
03:30 1023 30.21 852 25.16 -0.2 31.7 62 -6.6 20.2
03:35 1023 30.21 852 25.16 -0.7 30.8 63 -6.9 19.5
03:40 1023 30.21 852 25.16 -1 30.3 64 -7 19.5
03:45 1022 30.18 852 25.16 -0.9 30.3 62 -7.3 18.9
03:50 1022 30.18 852 25.16 -0.9 30.3 62 -7.3 18.9
03:55 1022 30.18 852 25.16 -0.9 30.4 63 -7.1 19.1
04:00 1022 30.18 852 25.16 -1.2 29.9 65 -6.9 19.6
04:05 1022 30.18 852 25.16 -2 28.4 69 -7 19.4
04:10 1022 30.18 852 25.16 -2.2 28 69 -7.1 19.2
04:15 1022 30.18 851 25.13 -1.9 28.6 67 -7.2 19
04:20 1022 30.18 851 25.13 -1.7 28.9 67 -7.2 19.1
04:25 1022 30.18 851 25.13 -1.7 28.9 67 -7.1 19.1
04:30 1022 30.18 851 25.13 -2.2 28 72 -6.6 20
04:35 1022 30.18 851 25.13 -2.7 27.1 70 -7.4 18.7
04:40 1022 30.18 851 25.13 -2.5 27.6 69 -7.4 18.7
04:45 1022 30.18 851 25.13 -2 28.4 67 -7.4 18.7
04:50 1022 30.18 851 25.13 -1.7 29 67 -7.1 19.2
04:55 1022 30.18 851 25.13 -2.1 28.3 68 -7.2 19
05:00 1022 30.18 851 25.13 -2.1 28.2 68 -7.2 19
05:05 1022 30.18 851 25.13 -1.7 28.9 65 -7.5 18.6
05:10 1022 30.18 851 25.13 -1.7 28.9 66 -7.2 19
05:15 1022 30.18 851 25.13 -1.7 28.9 66 -7.3 18.9
05:20 1022 30.18 851 25.13 -1.6 29.1 66 -7.1 19.2
05:25 1022 30.18 851 25.13 -1.7 29 66 -7.2 19
05:30 1022 30.18 851 25.13 -1.6 29 66 -7.3 18.9
05:35 1022 30.18 851 25.13 -1.7 29 66 -7.3 18.9
05:40 1022 30.18 851 25.13 -1.7 29 65 -7.4 18.7
05:45 1022 30.18 851 25.13 -1.4 29.4 64 -7.4 18.7
05:50 1022 30.18 851 25.13 -1.2 29.8 63 -7.5 18.6
05:55 1022 30.18 851 25.13 -0.9 30.4 61 -7.5 18.5
06:00 1022 30.18 851 25.13 -1 30.3 62 -7.3 18.9
06:05 1022 30.18 851 25.13 -1.3 29.7 63 -7.5 18.6
06:10 1022 30.18 851 25.13 -1.1 30 62 -7.6 18.3
06:15 1022 30.18 851 25.13 -0.9 30.4 60 -7.7 18.2
06:20 1022 30.18 851 25.13 -0.9 30.4 61 -7.5 18.5
06:25 1022 30.18 851 25.13 -1.3 29.7 63 -7.5 18.5
06:30 1021 30.15 851 25.13 -1.6 29.2 63 -7.6 18.2
06:35 1021 30.15 851 25.13 -1.8 28.7 64 -7.7 18.2
06:40 1021 30.15 851 25.13 -1.8 28.8 64 -7.7 18.2
06:45 1021 30.15 851 25.13 -1.8 28.8 65 -7.6 18.4
06:50 1021 30.15 850 25.1 -1.4 29.5 63 -7.6 18.3
06:55 1021 30.15 851 25.13 -1 30.1 61 -7.6 18.4
07:00 1021 30.15 850 25.1 -0.8 30.6 61 -7.4 18.7
07:05 1021 30.15 850 25.1 -0.8 30.6 61 -7.3 18.9
07:10 1021 30.15 850 25.1 -0.9 30.4 62 -7.2 19
07:15 1021 30.15 850 25.1 -0.8 30.5 62 -7.3 18.9
07:20 1021 30.15 850 25.1 -0.6 30.9 61 -7.2 19
07:25 1021 30.15 850 25.1 -0.4 31.3 60 -7.3 18.8
07:30 1021 30.15 850 25.1 -0.1 31.9 59 -7.2 19.1
07:35 1021 30.15 850 25.1 0 32 59 -7.2 19.1
07:40 1020 30.12 850 25.1 0 32.1 59 -7 19.4
07:45 1020 30.12 850 25.1 -0.1 31.9 59 -7.1 19.3
07:50 1020 30.12 850 25.1 -0 32 59 -7.1 19.2
07:55 1020 30.12 849 25.07 0.1 32.2 59 -6.9 19.5
08:00 1020 30.12 849 25.07 0.2 32.3 58 -7.1 19.2
08:05 1020 30.12 849 25.07 0.3 32.5 58 -7.1 19.2
08:10 1020 30.12 849 25.07 0.4 32.7 57 -7.1 19.2
08:15 1020 30.12 849 25.07 0.3 32.6 58 -7.1 19.3
08:20 1020 30.12 849 25.07 0.3 32.6 57 -7.1 19.1
08:25 1020 30.12 849 25.07 0.5 32.9 57 -7.2 19.1
08:30 1020 30.12 849 25.07 0.5 33 56 -7.1 19.2
08:35 1020 30.12 849 25.07 0.5 32.9 56 -7.4 18.8
08:40 1020 30.12 849 25.07 0.8 33.4 55 -7.2 19
08:45 1020 30.12 849 25.07 0.9 33.6 54 -7.4 18.7
08:50 1020 30.12 849 25.07 1.1 34 53 -7.4 18.6
08:55 1020 30.12 850 25.1 1.3 34.3 53 -7.2 19
09:00 1020 30.12 850 25.1 1.4 34.5 52 -7.4 18.7
09:05 1021 30.15 850 25.1 1.6 34.9 53 -7 19.4
09:10 1021 30.15 850 25.1 1.7 35 54 -6.6 20.1
09:15 1021 30.15 850 25.1 0.7 33.2 58 -6.6 20.1
09:20 1021 30.15 850 25.1 -0.2 31.7 59 -7.3 18.8
09:25 1021 30.15 850 25.1 0.2 32.3 58 -7.2 19.1
09:30 1021 30.15 850 25.1 0 32.1 58 -7.4 18.7
09:35 1021 30.15 850 25.1 0.1 32.2 60 -6.8 19.7
09:40 1021 30.15 850 25.1 -0.5 31 62 -6.9 19.6
09:45 1021 30.15 850 25.1 -0.7 30.7 62 -7.1 19.2
09:50 1021 30.15 850 25.1 -0.6 30.9 62 -7.1 19.2
09:55 1021 30.15 850 25.1 -0.4 31.3 62 -6.9 19.7
10:00 1021 30.15 850 25.1 -0.1 31.9 60 -7 19.3
10:05 1021 30.15 850 25.1 0.2 32.4 59 -6.9 19.5
10:10 1021 30.15 850 25.1 0.4 32.7 58 -6.9 19.6
10:15 1021 30.15 850 25.1 0.7 33.2 52 -8 17.6
10:20 1021 30.15 850 25.1 1.9 35.4 52 -6.9 19.5
10:25 1021 30.15 850 25.1 1.6 34.9 56 -6.1 20.9
10:30 1021 30.15 850 25.1 1.4 34.5 55 -6.6 20.1
10:35 1021 30.15 850 25.1 1.8 35.3 54 -6.4 20.4
10:40 1021 30.15 850 25.1 1.9 35.5 52 -6.9 19.6
10:45 1021 30.15 850 25.1 1.9 35.4 52 -7.1 19.3
10:50 1021 30.15 850 25.1 2.6 36.6 49 -7.1 19.3
10:55 1021 30.15 850 25.1 3 37.4 49 -6.6 20.1
11:00 1020 30.12 850 25.1 3.1 37.6 49 -6.5 20.2
11:05 1020 30.12 850 25.1 3.1 37.5 49 -6.7 19.9
11:10 1020 30.12 849 25.07 3.3 37.9 49 -6.5 20.4
11:15 1020 30.12 849 25.07 3.8 38.9 49 -6 21.2
11:20 1020 30.12 849 25.07 4 39.2 46 -6.6 20.2
11:25 1020 30.12 849 25.07 3.9 38.9 45 -6.9 19.6
11:30 1020 30.12 849 25.07 4.5 40 43 -6.9 19.5
11:35 1020 30.12 849 25.07 4.9 40.8 43 -6.6 20.1
11:40 1020 30.12 849 25.07 5.9 42.5 39 -7.1 19.1
11:45 1020 30.12 849 25.07 5.9 42.6 41 -6.2 20.9
11:50 1019 30.09 849 25.07 5.4 41.8 40 -7 19.4
11:55 1019 30.09 848 25.04 5.7 42.2 40 -6.9 19.7
12:00 1019 30.09 848 25.04 5.9 42.7 40 -6.7 20
12:05 1019 30.09 848 25.04 6.1 43 40 -6.6 20.2
12:10 1019 30.09 848 25.04 6.4 43.5 38 -6.9 19.7
12:15 1019 30.09 848 25.04 6.6 43.9 40 -5.9 21.4
12:20 1019 30.09 848 25.04 6.8 44.2 38 -6.6 20.1
12:25 1019 30.09 848 25.04 6.8 44.2 39 -6.4 20.6
12:30 1019 30.09 848 25.04 6.8 44.2 36 -7.1 19.1
12:35 1018 30.06 848 25.04 6.9 44.5 38 -6.3 20.6
12:40 1018 30.06 847 25.01 6.7 44.1 36 -7.2 19
12:45 1018 30.06 847 25.01 6.5 43.8 38 -6.9 19.5
12:50 1018 30.06 847 25.01 6.9 44.5 37 -6.8 19.8
12:55 1018 30.06 847 25.01 7.5 45.6 37 -6.3 20.7
13:00 1018 30.06 847 25.01 8 46.5 35 -6.6 20.1
13:05 1018 30.06 847 25.01 7.4 45.2 36 -6.8 19.7
13:10 1018 30.06 847 25.01 7.3 45.1 35 -7.3 18.8
13:15 1018 30.06 847 25.01 7.2 45 34 -7.6 18.3
13:20 1018 30.06 847 25.01 7.5 45.5 34 -7.5 18.5
13:25 1018 30.06 847 25.01 7.8 46 34 -7.2 19
13:30 1018 30.06 847 25.01 6.9 44.4 36 -7.1 19.2
13:35 1018 30.06 847 25.01 7.2 44.9 34 -7.8 18
13:40 1018 30.06 847 25.01 6.7 44 36 -7.5 18.5
13:45 1018 30.06 847 25.01 6.8 44.3 33 -8.2 17.3
13:50 1018 30.06 847 25.01 6.7 44 34 -8.2 17.3
13:55 1018 30.06 847 25.01 6.6 43.9 35 -7.6 18.3
14:00 1018 30.06 847 25.01 7.7 45.9 31 -8.2 17.2
14:05 1018 30.06 847 25.01 8 46.4 32 -7.7 18.2
14:10 1017 30.03 847 25.01 8 46.4 32 -7.7 18.1
14:15 1017 30.03 846 24.98 7.4 45.3 32 -8.1 17.4
14:20 1017 30.03 846 24.98 7.2 44.9 33 -7.9 17.8
14:25 1017 30.03 846 24.98 7.3 45.1 33 -7.9 17.7
14:30 1017 30.03 846 24.98 6.8 44.2 38 -6.5 20.3
14:35 1017 30.03 846 24.98 6.1 43 36 -7.7 18.2
14:40 1017 30.03 846 24.98 6.4 43.6 34 -8.4 17
14:45 1017 30.03 846 24.98 6.3 43.3 36 -7.8 18
14:50 1017 30.03 846 24.98 6.4 43.5 36 -7.8 18
14:55 1017 30.03 846 24.98 6.4 43.4 36 -7.7 18.1
15:00 1017 30.03 846 24.98 6.3 43.3 36 -7.8 17.9
15:05 1017 30.03 846 24.98 6.1 42.9 36 -8 17.7
15:10 1017 30.03 846 24.98 6 42.7 37 -7.5 18.5
15:15 1016 30 846 24.98 6 42.8 37 -7.6 18.3
15:20 1016 30 846 24.98 6.2 43.2 37 -7.5 18.6
15:25 1016 30 846 24.98 6.1 43 38 -7.2 19
15:30 1016 30 846 24.98 6.1 43 40 -6.6 20.1
15:35 1016 30 846 24.98 6.2 43.1 39 -6.7 20
15:40 1016 30 846 24.98 6.3 43.3 39 -6.6 20.2
15:45 1016 30 845 24.95 6.1 43 40 -6.3 20.6
15:50 1016 30 845 24.95 5.7 42.3 42 -6.1 21.1
15:55 1016 30 845 24.95 5.7 42.3 43 -5.9 21.4
16:00 1016 30 845 24.95 5.5 41.9 43 -6 21.2
16:05 1016 30 845 24.95 5.1 41.2 44 -6.2 20.8
16:10 1016 30 845 24.95 5.3 41.6 45 -5.7 21.8
16:15 1016 30 845 24.95 5.3 41.6 44 -6 21.2
16:20 1016 30 845 24.95 5.4 41.8 42 -6.3 20.6
16:25 1016 30 845 24.95 5.6 42 43 -6 21.2
16:30 1016 30 845 24.95 5.6 42 43 -6.2 20.9
16:35 1016 30 845 24.95 5.6 42.1 45 -5.5 22
16:40 1015 29.97 845 24.95 5.4 41.7 44 -5.8 21.5
16:45 1015 29.97 845 24.95 5.2 41.3 46 -5.6 22
16:50 1015 29.97 845 24.95 5.1 41.1 48 -5 23
16:55 1015 29.97 844 24.92 4.9 40.8 48 -5.2 22.7
17:00 1015 29.97 844 24.92 4.8 40.6 50 -4.9 23.2
17:05 1015 29.97 844 24.92 4.2 39.6 52 -4.9 23.2
17:10 1015 29.97 844 24.92 3.7 38.7 56 -4.3 24.2
17:15 1015 29.97 844 24.92 3.5 38.3 56 -4.4 24.1
17:20 1015 29.97 844 24.92 3.6 38.5 54 -4.9 23.1
17:25 1015 29.97 844 24.92 3.8 38.8 49 -6 21.2
17:30 1015 29.97 844 24.92 3.8 38.9 46 -6.9 19.7
17:35 1014 29.94 844 24.92 3.7 38.7 48 -6.3 20.7
17:40 1014 29.94 844 24.92 3.9 39.1 53 -4.8 23.4
17:45 1014 29.94 844 24.92 3.6 38.5 53 -5.1 22.9
17:50 1014 29.94 844 24.92 2.9 37.1 58 -4.7 23.6
17:55 1014 29.94 844 24.92 2.5 36.4 55 -5.8 21.6
18:00 1014 29.94 844 24.92 2.7 36.9 55 -5.5 22.2
18:05 1014 29.94 844 24.92 2.7 36.8 53 -5.9 21.4
18:10 1014 29.94 844 24.92 3.1 37.5 52 -5.9 21.4
18:15 1014 29.94 844 24.92 3.1 37.6 51 -6 21.3
18:20 1014 29.94 844 24.92 3.3 38 51 -5.9 21.5
18:25 1014 29.94 844 24.92 3.2 37.7 52 -5.8 21.5
18:30 1014 29.94 843 24.89 3.1 37.5 53 -5.6 21.9
18:35 1014 29.94 843 24.89 3.1 37.6 45 -7.8 18
18:40 1014 29.94 843 24.89 5.2 41.3 33 -9.9 14.2
18:45 1014 29.94 844 24.92 6.6 43.9 34 -8 17.6
18:50 1014 29.94 844 24.92 5.6 42.1 46 -5 23
18:55 1014 29.94 844 24.92 4.2 39.6 48 -5.8 21.6
19:00 1014 29.94 844 24.92 3.7 38.7 49 -6.1 21
19:05 1014 29.94 843 24.89 3.7 38.7 47 -6.5 20.4
19:10 1014 29.94 843 24.89 3.3 38 52 -5.5 22.1
19:15 1014 29.94 843 24.89 3.1 37.5 52 -5.9 21.3
19:20 1014 29.94 843 24.89 2.3 36.1 56 -5.6 21.9
19:25 1014 29.94 843 24.89 1.8 35.3 56 -6.1 21
19:30 1014 29.94 843 24.89 1.7 35.1 55 -6.5 20.4
19:35 1014 29.94 843 24.89 1.2 34.2 54 -7.1 19.2
19:40 1014 29.94 843 24.89 2.4 36.4 47 -7.8 17.9
19:45 1014 29.94 843 24.89 3.4 38.1 47 -6.9 19.5
19:50 1014 29.94 843 24.89 4.1 39.5 34 -10.2 13.7
19:55 1014 29.94 843 24.89 5.7 42.3 37 -7.9 17.8
20:00 1014 29.94 843 24.89 4.4 39.9 45 -6.6 20.1
20:05 1014 29.94 843 24.89 3.6 38.5 41 -8.3 17
20:10 1014 29.94 843 24.89 3.9 39.1 46 -6.7 20
20:15 1014 29.94 843 24.89 3.5 38.3 44 -7.6 18.2
20:20 1014 29.94 843 24.89 3.7 38.7 42 -8.1 17.4
20:25 1014 29.94 843 24.89 4.2 39.5 41 -8 17.5
20:30 1014 29.94 843 24.89 4.1 39.3 47 -6.2 20.9
20:35 1014 29.94 843 24.89 2.6 36.7 48 -7.3 18.8
20:40 1014 29.94 843 24.89 2.6 36.8 47 -7.5 18.4
20:45 1014 29.94 843 24.89 2.4 36.4 51 -6.7 19.9
20:50 1014 29.94 843 24.89 2.2 35.9 48 -7.7 18.2
20:55 1014 29.94 843 24.89 2.3 36.1 49 -7.3 18.9
21:00 1014 29.94 843 24.89 2.3 36.1 47 -7.8 18
21:05 1014 29.94 843 24.89 2.9 37.1 45 -7.9 17.8
21:10 1014 29.94 843 24.89 2.7 36.8 47 -7.6 18.3
21:15 1014 29.94 843 24.89 3 37.3 45 -7.8 17.9
21:20 1014 29.94 843 24.89 3.1 37.6 45 -7.6 18.3
21:25 1014 29.94 843 24.89 3 37.5 46 -7.5 18.5
21:30 1014 29.94 843 24.89 2.7 36.8 47 -7.6 18.4
21:35 1013 29.91 843 24.89 2.7 36.8 48 -7.4 18.8
21:40 1013 29.91 843 24.89 2.1 35.7 50 -7.3 18.9
21:45 1013 29.91 842 24.86 1.3 34.3 51 -7.7 18.1
21:50 1013 29.91 842 24.86 1 33.8 53 -7.6 18.4
21:55 1013 29.91 842 24.86 1.3 34.3 50 -8.1 17.5
22:00 1013 29.91 842 24.86 2.1 35.8 45 -8.6 16.5
22:05 1013 29.91 842 24.86 3.4 38 38 -9.7 14.6
22:10 1013 29.91 842 24.86 3.9 39.1 34 -10.7 12.7
22:15 1013 29.91 842 24.86 5 40.9 29 -11.7 11
22:20 1013 29.91 842 24.86 6.5 43.8 28 -10.8 12.6
22:25 1013 29.91 842 24.86 7 44.5 27 -11 12.2
22:30 1013 29.91 842 24.86 7.3 45.2 27 -10.6 12.9
22:35 1013 29.91 842 24.86 7.2 44.9 26 -10.9 12.4
22:40 1013 29.91 842 24.86 7.3 45.1 27 -10.3 13.5
22:45 1013 29.91 842 24.86 7.1 44.8 27 -10.7 12.8
22:50 1013 29.91 842 24.86 7.1 44.7 26 -11.2 11.9
22:55 1013 29.91 842 24.86 7.2 45 26 -11 12.2
23:00 1013 29.91 842 24.86 7 44.6 27 -10.8 12.5
23:05 1013 29.91 842 24.86 7 44.6 26 -11.2 11.8
23:10 1012 29.88 842 24.86 6.9 44.4 26 -11.5 11.3
23:15 1012 29.88 842 24.86 7.2 45 25 -11.7 11
23:20 1012 29.88 842 24.86 7.1 44.7 28 -10.1 13.9
23:25 1012 29.88 841 24.83 6.8 44.2 27 -10.7 12.7
23:30 1012 29.88 842 24.86 6.6 43.9 29 -10.1 13.9
23:35 1012 29.88 842 24.86 6.9 44.4 28 -10.4 13.2
23:40 1012 29.88 842 24.86 6.9 44.5 28 -10.4 13.3
23:45 1013 29.91 842 24.86 6.9 44.4 29 -10.1 13.9
23:50 1013 29.91 842 24.86 6.8 44.2 29 -9.9 14.2
23:55 1013 29.91 842 24.86 6.4 43.5 31 -9.6 14.8
24:00 1013 29.91 842 24.86 6.4 43.5 28 -10.9 12.3